Terminal Aerodrome Forecast
Issued by NWS Twin Cities, MN

Home | Current Version | Previous Version | Text Only | Print | Product List | Glossary Off
Versions: 1 2 3 4 5 6 7 8 9 10 11 12 13 14 15

000
FTUS43 KMPX 031731
TAFEAU
TAF
KEAU 031731Z 0318/0418 20006KT 2SM -SN BR SCT009 BKN015 OVC050
     FM032000 29012G20KT 5SM -SN BKN025 BKN050
      TEMPO 0320/0324 3SM BLSN SCT025
     FM040000 29015G22KT 6SM BLSN SCT025 BKN090
     FM040500 29011KT P6SM SKC=

USA.gov is the U.S. government's official web portal to all federal, state and local government web resources and services.